Terminal Aerodrome Forecast
Issued by NWS Twin Cities, MN

Home | Current Version | Previous Version | Text Only | Print | Product List | Glossary On
Versions: 1 2 3 4 5 6 7 8 9 10 11 12 13 14 15
000
FTUS43 KMPX 231126
TAFEAU
TAF
KEAU 231126Z 2312/2412 22011KT P6SM OVC100
     FM231500 22011KT P6SM VCSH OVC060
      TEMPO 2315/2318 6SM -FZRAPL
     FM231800 24010KT P6SM SCT030 BKN050
     FM240000 28008KT P6SM OVC020=

USA.gov is the U.S. government's official web portal to all federal, state and local government web resources and services.